sensor_id;sensor_type;location;lat;lon;timestamp;pressure;altitude;pressure_sealevel;temperature;humidity
79221;BME280;72175;52.118;5.406;2023-12-28T00:02:12;100836.16;;;12.60;65.02
79221;BME280;72175;52.118;5.406;2023-12-28T00:04:41;100826.38;;;12.60;65.04
79221;BME280;72175;52.118;5.406;2023-12-28T00:07:07;100825.53;;;12.60;64.72
79221;BME280;72175;52.118;5.406;2023-12-28T00:09:34;100836.16;;;12.60;64.99
79221;BME280;72175;52.118;5.406;2023-12-28T00:12:01;100835.31;;;12.59;64.84
79221;BME280;72175;52.118;5.406;2023-12-28T00:14:27;100840.63;;;12.59;64.80
79221;BME280;72175;52.118;5.406;2023-12-28T00:16:56;100847.59;;;12.60;64.81
79221;BME280;72175;52.118;5.406;2023-12-28T00:19:22;100841.47;;;12.60;64.96
79221;BME280;72175;52.118;5.406;2023-12-28T00:21:49;100861.88;;;12.59;64.83
79221;BME280;72175;52.118;5.406;2023-12-28T00:24:20;100847.75;;;12.59;64.91
79221;BME280;72175;52.118;5.406;2023-12-28T00:26:47;100862.69;;;12.60;64.63
79221;BME280;72175;52.118;5.406;2023-12-28T00:29:14;100863.53;;;12.60;65.09
79221;BME280;72175;52.118;5.406;2023-12-28T00:31:41;100863.69;;;12.59;64.88
79221;BME280;72175;52.118;5.406;2023-12-28T00:34:08;100864.53;;;12.59;64.78
79221;BME280;72175;52.118;5.406;2023-12-28T00:36:35;100865.34;;;12.60;64.80
79221;BME280;72175;52.118;5.406;2023-12-28T00:39:01;100878.63;;;12.60;64.84
79221;BME280;72175;52.118;5.406;2023-12-28T00:41:28;100883.09;;;12.59;64.76
79221;BME280;72175;52.118;5.406;2023-12-28T00:43:58;100894.56;;;12.60;64.77
79221;BME280;72175;52.118;5.406;2023-12-28T00:46:24;100883.09;;;12.59;65.04
79221;BME280;72175;52.118;5.406;2023-12-28T00:48:51;100889.25;;;12.60;64.99
79221;BME280;72175;52.118;5.406;2023-12-28T00:51:20;100889.41;;;12.58;64.68
79221;BME280;72175;52.118;5.406;2023-12-28T00:53:47;100898.19;;;12.59;65.00
79221;BME280;72175;52.118;5.406;2023-12-28T00:56:14;100901.69;;;12.59;65.01
79221;BME280;72175;52.118;5.406;2023-12-28T00:58:41;100897.22;;;12.60;64.89
79221;BME280;72175;52.118;5.406;2023-12-28T01:01:09;100895.53;;;12.59;65.06
79221;BME280;72175;52.118;5.406;2023-12-28T01:03:36;100889.25;;;12.60;64.76
79221;BME280;72175;52.118;5.406;2023-12-28T01:06:04;100898.19;;;12.59;65.05
79221;BME280;72175;52.118;5.406;2023-12-28T01:08:31;100886.59;;;12.60;65.15
79221;BME280;72175;52.118;5.406;2023-12-28T01:11:00;100884.09;;;12.58;64.90
79221;BME280;72175;52.118;5.406;2023-12-28T01:13:27;100892.88;;;12.59;64.82
79221;BME280;72175;52.118;5.406;2023-12-28T01:15:54;100879.63;;;12.59;64.95
79221;BME280;72175;52.118;5.406;2023-12-28T01:18:22;100893.72;;;12.59;64.83
79221;BME280;72175;52.118;5.406;2023-12-28T01:20:49;100898.19;;;12.59;64.79
79221;BME280;72175;52.118;5.406;2023-12-28T01:23:15;100898.19;;;12.59;64.88
79221;BME280;72175;52.118;5.406;2023-12-28T01:25:42;100892.06;;;12.58;65.01
79221;BME280;72175;52.118;5.406;2023-12-28T01:28:09;100903.50;;;12.59;65.05
79221;BME280;72175;52.118;5.406;2023-12-28T01:30:35;100908.81;;;12.59;64.95
79221;BME280;72175;52.118;5.406;2023-12-28T01:33:02;100914.13;;;12.59;64.95
79221;BME280;72175;52.118;5.406;2023-12-28T01:35:29;100899.03;;;12.59;64.74
79221;BME280;72175;52.118;5.406;2023-12-28T01:37:55;100918.44;;;12.60;64.81
79221;BME280;72175;52.118;5.406;2023-12-28T01:40:22;100912.44;;;12.58;65.11
79221;BME280;72175;52.118;5.406;2023-12-28T01:42:49;100896.53;;;12.58;65.09
79221;BME280;72175;52.118;5.406;2023-12-28T01:45:18;100900.00;;;12.58;65.20
79221;BME280;72175;52.118;5.406;2023-12-28T01:47:47;100902.66;;;12.58;64.92
79221;BME280;72175;52.118;5.406;2023-12-28T01:50:15;100899.19;;;12.58;64.90
79221;BME280;72175;52.118;5.406;2023-12-28T01:52:42;100898.19;;;12.59;65.11
79221;BME280;72175;52.118;5.406;2023-12-28T01:55:10;100907.13;;;12.58;65.20
79221;BME280;72175;52.118;5.406;2023-12-28T01:57:37;100913.28;;;12.58;64.99
79221;BME280;72175;52.118;5.406;2023-12-28T02:00:04;100915.09;;;12.58;64.93
79221;BME280;72175;52.118;5.406;2023-12-28T02:02:33;100915.09;;;12.58;65.07
79221;BME280;72175;52.118;5.406;2023-12-28T02:05:00;100917.75;;;12.58;65.10
79221;BME280;72175;52.118;5.406;2023-12-28T02:07:29;100915.94;;;12.58;64.81
79221;BME280;72175;52.118;5.406;2023-12-28T02:09:56;100915.94;;;12.58;64.99
79221;BME280;72175;52.118;5.406;2023-12-28T02:12:22;100908.97;;;12.57;64.92
79221;BME280;72175;52.118;5.406;2023-12-28T02:14:49;100919.56;;;12.57;64.74
79221;BME280;72175;52.118;5.406;2023-12-28T02:17:22;100909.78;;;12.58;65.06
79221;BME280;72175;52.118;5.406;2023-12-28T02:19:52;100918.75;;;12.57;64.89
79221;BME280;72175;52.118;5.406;2023-12-28T02:22:21;100903.66;;;12.57;65.23
79221;BME280;72175;52.118;5.406;2023-12-28T02:25:08;100909.78;;;12.58;65.05
79221;BME280;72175;52.118;5.406;2023-12-28T02:27:39;100891.22;;;12.58;65.06
79221;BME280;72175;52.118;5.406;2023-12-28T02:30:08;100885.91;;;12.58;64.92
79221;BME280;72175;52.118;5.406;2023-12-28T02:32:56;100894.84;;;12.57;64.99
79221;BME280;72175;52.118;5.406;2023-12-28T02:35:38;100896.66;;;12.56;64.85
79221;BME280;72175;52.118;5.406;2023-12-28T02:38:09;100902.81;;;12.57;65.14
79221;BME280;72175;52.118;5.406;2023-12-28T02:40:37;100889.53;;;12.57;64.91
79221;BME280;72175;52.118;5.406;2023-12-28T02:43:08;100894.84;;;12.57;65.26
79221;BME280;72175;52.118;5.406;2023-12-28T02:45:35;100892.19;;;12.57;65.33
79221;BME280;72175;52.118;5.406;2023-12-28T02:48:03;100887.72;;;12.57;65.03
79221;BME280;72175;52.118;5.406;2023-12-28T02:50:31;100886.06;;;12.56;65.01
79221;BME280;72175;52.118;5.406;2023-12-28T02:52:58;100870.97;;;12.57;65.26
79221;BME280;72175;52.118;5.406;2023-12-28T02:55:25;100875.44;;;12.56;64.85
79221;BME280;72175;52.118;5.406;2023-12-28T02:57:55;100860.34;;;12.57;64.95
79221;BME280;72175;52.118;5.406;2023-12-28T03:00:22;100868.31;;;12.57;64.92
79221;BME280;72175;52.118;5.406;2023-12-28T03:02:49;100870.97;;;12.57;64.95
79221;BME280;72175;52.118;5.406;2023-12-28T03:05:16;100872.78;;;12.56;64.77
79221;BME280;72175;52.118;5.406;2023-12-28T03:07:43;100871.78;;;12.57;65.10
79221;BME280;72175;52.118;5.406;2023-12-28T03:10:11;100870.97;;;12.57;65.05
79221;BME280;72175;52.118;5.406;2023-12-28T03:12:40;100878.91;;;12.57;64.98
79221;BME280;72175;52.118;5.406;2023-12-28T03:15:07;100869.16;;;12.57;65.17
79221;BME280;72175;52.118;5.406;2023-12-28T03:17:35;100880.75;;;12.56;65.03
79221;BME280;72175;52.118;5.406;2023-12-28T03:20:04;100884.22;;;12.57;64.75
79221;BME280;72175;52.118;5.406;2023-12-28T03:22:31;100878.09;;;12.56;65.00
79221;BME280;72175;52.118;5.406;2023-12-28T03:24:59;100883.41;;;12.56;64.82
79221;BME280;72175;52.118;5.406;2023-12-28T03:27:26;100872.78;;;12.56;64.89
79221;BME280;72175;52.118;5.406;2023-12-28T03:29:52;100864.81;;;12.56;64.93
79221;BME280;72175;52.118;5.406;2023-12-28T03:32:20;100888.69;;;12.56;64.75
79221;BME280;72175;52.118;5.406;2023-12-28T03:34:47;100881.56;;;12.57;64.84
79221;BME280;72175;52.118;5.406;2023-12-28T03:37:13;100870.13;;;12.56;65.27
79221;BME280;72175;52.118;5.406;2023-12-28T03:39:41;100863.00;;;12.57;64.83
79221;BME280;72175;52.118;5.406;2023-12-28T03:42:08;100867.47;;;12.56;65.09
79221;BME280;72175;52.118;5.406;2023-12-28T03:44:35;100870.97;;;12.57;64.97
79221;BME280;72175;52.118;5.406;2023-12-28T03:47:04;100870.13;;;12.56;65.05
79221;BME280;72175;52.118;5.406;2023-12-28T03:49:31;100863.84;;;12.57;65.22
79221;BME280;72175;52.118;5.406;2023-12-28T03:51:57;100864.81;;;12.56;65.34
79221;BME280;72175;52.118;5.406;2023-12-28T03:54:24;100863.97;;;12.56;65.27
79221;BME280;72175;52.118;5.406;2023-12-28T03:56:51;100866.63;;;12.56;65.16
79221;BME280;72175;52.118;5.406;2023-12-28T03:59:17;100859.50;;;12.56;64.91
79221;BME280;72175;52.118;5.406;2023-12-28T04:01:46;100857.69;;;12.57;64.93
79221;BME280;72175;52.118;5.406;2023-12-28T04:04:13;100850.72;;;12.56;65.00
79221;BME280;72175;52.118;5.406;2023-12-28T04:06:40;100870.13;;;12.56;65.20
79221;BME280;72175;52.118;5.406;2023-12-28T04:09:11;100864.81;;;12.56;64.85
79221;BME280;72175;52.118;5.406;2023-12-28T04:11:38;100865.66;;;12.57;65.07
79221;BME280;72175;52.118;5.406;2023-12-28T04:14:05;100863.97;;;12.56;65.28
79221;BME280;72175;52.118;5.406;2023-12-28T04:16:32;100864.81;;;12.56;64.97
79221;BME280;72175;52.118;5.406;2023-12-28T04:18:58;100861.31;;;12.56;65.05
79221;BME280;72175;52.118;5.406;2023-12-28T04:21:25;100870.13;;;12.56;65.03
79221;BME280;72175;52.118;5.406;2023-12-28T04:23:52;100867.47;;;12.56;65.17
79221;BME280;72175;52.118;5.406;2023-12-28T04:26:18;100878.91;;;12.57;65.05
79221;BME280;72175;52.118;5.406;2023-12-28T04:28:48;100870.13;;;12.56;64.99
79221;BME280;72175;52.118;5.406;2023-12-28T04:31:14;100878.09;;;12.56;65.05
79221;BME280;72175;52.118;5.406;2023-12-28T04:33:41;100868.31;;;12.57;65.25
79221;BME280;72175;52.118;5.406;2023-12-28T04:36:09;100885.91;;;12.58;65.09
79221;BME280;72175;52.118;5.406;2023-12-28T04:38:36;100877.09;;;12.57;65.25
79221;BME280;72175;52.118;5.406;2023-12-28T04:41:03;100864.81;;;12.56;65.23
79221;BME280;72175;52.118;5.406;2023-12-28T04:43:30;100875.44;;;12.56;64.94
79221;BME280;72175;52.118;5.406;2023-12-28T04:45:57;100873.63;;;12.57;65.11
79221;BME280;72175;52.118;5.406;2023-12-28T04:48:23;100875.44;;;12.56;65.19
79221;BME280;72175;52.118;5.406;2023-12-28T04:50:53;100870.13;;;12.56;65.07
79221;BME280;72175;52.118;5.406;2023-12-28T04:53:20;100875.44;;;12.56;65.11
79221;BME280;72175;52.118;5.406;2023-12-28T04:55:47;100869.28;;;12.56;65.02
79221;BME280;72175;52.118;5.406;2023-12-28T04:58:13;100867.47;;;12.56;65.01
79221;BME280;72175;52.118;5.406;2023-12-28T05:00:40;100875.44;;;12.56;65.14
79221;BME280;72175;52.118;5.406;2023-12-28T05:03:09;100870.13;;;12.56;65.01
79221;BME280;72175;52.118;5.406;2023-12-28T05:05:35;100877.25;;;12.56;65.01
79221;BME280;72175;52.118;5.406;2023-12-28T05:08:03;100888.69;;;12.56;65.26
79221;BME280;72175;52.118;5.406;2023-12-28T05:10:29;100879.91;;;12.56;65.00
79221;BME280;72175;52.118;5.406;2023-12-28T05:12:56;100875.44;;;12.56;64.82
79221;BME280;72175;52.118;5.406;2023-12-28T05:15:28;100883.53;;;12.55;65.28
79221;BME280;72175;52.118;5.406;2023-12-28T05:17:56;100891.34;;;12.56;65.31
79221;BME280;72175;52.118;5.406;2023-12-28T05:20:23;100885.22;;;12.56;64.93
79221;BME280;72175;52.118;5.406;2023-12-28T05:22:50;100883.53;;;12.55;65.21
79221;BME280;72175;52.118;5.406;2023-12-28T05:25:17;100864.81;;;12.56;65.35
79221;BME280;72175;52.118;5.406;2023-12-28T05:27:43;100885.22;;;12.56;65.01
79221;BME280;72175;52.118;5.406;2023-12-28T05:30:10;100886.19;;;12.55;65.18
79221;BME280;72175;52.118;5.406;2023-12-28T05:32:39;100885.22;;;12.56;64.89
79221;BME280;72175;52.118;5.406;2023-12-28T05:35:06;100879.06;;;12.55;64.94
79221;BME280;72175;52.118;5.406;2023-12-28T05:37:33;100895.00;;;12.55;65.07
79221;BME280;72175;52.118;5.406;2023-12-28T05:40:01;100895.00;;;12.55;65.10
79221;BME280;72175;52.118;5.406;2023-12-28T05:42:28;100889.53;;;12.57;65.18
79221;BME280;72175;52.118;5.406;2023-12-28T05:44:55;100892.34;;;12.55;65.16
79221;BME280;72175;52.118;5.406;2023-12-28T05:47:22;100885.22;;;12.56;65.26
79221;BME280;72175;52.118;5.406;2023-12-28T05:49:50;100879.06;;;12.55;65.38
79221;BME280;72175;52.118;5.406;2023-12-28T05:52:18;100887.88;;;12.56;65.09
79221;BME280;72175;52.118;5.406;2023-12-28T05:54:46;100886.19;;;12.55;65.38
79221;BME280;72175;52.118;5.406;2023-12-28T05:57:15;100884.38;;;12.55;65.27
79221;BME280;72175;52.118;5.406;2023-12-28T05:59:42;100883.41;;;12.56;65.40
79221;BME280;72175;52.118;5.406;2023-12-28T06:02:10;100873.75;;;12.55;65.35
79221;BME280;72175;52.118;5.406;2023-12-28T06:04:37;100882.56;;;12.56;65.16
79221;BME280;72175;52.118;5.406;2023-12-28T06:07:04;100895.00;;;12.55;64.98
79221;BME280;72175;52.118;5.406;2023-12-28T06:09:31;100900.31;;;12.55;65.27
79221;BME280;72175;52.118;5.406;2023-12-28T06:11:58;100904.63;;;12.56;65.08
79221;BME280;72175;52.118;5.406;2023-12-28T06:14:25;100898.50;;;12.56;65.07
79221;BME280;72175;52.118;5.406;2023-12-28T06:16:53;100891.50;;;12.55;65.45
79221;BME280;72175;52.118;5.406;2023-12-28T06:19:19;100884.38;;;12.55;65.16
79221;BME280;72175;52.118;5.406;2023-12-28T06:21:46;100899.47;;;12.55;65.13
79221;BME280;72175;52.118;5.406;2023-12-28T06:24:13;100903.78;;;12.56;65.20
79221;BME280;72175;52.118;5.406;2023-12-28T06:26:44;100900.31;;;12.55;65.18
79221;BME280;72175;52.118;5.406;2023-12-28T06:29:11;100888.84;;;12.55;65.21
79221;BME280;72175;52.118;5.406;2023-12-28T06:31:39;100902.97;;;12.55;65.04
79221;BME280;72175;52.118;5.406;2023-12-28T06:34:06;100917.91;;;12.56;65.17
79221;BME280;72175;52.118;5.406;2023-12-28T06:36:33;100918.88;;;12.55;65.14
79221;BME280;72175;52.118;5.406;2023-12-28T06:39:01;100926.00;;;12.55;65.15
79221;BME280;72175;52.118;5.406;2023-12-28T06:41:28;100924.03;;;12.57;65.27
79221;BME280;72175;52.118;5.406;2023-12-28T06:43:55;100927.81;;;12.54;65.35
79221;BME280;72175;52.118;5.406;2023-12-28T06:46:23;100924.19;;;12.55;65.20
79221;BME280;72175;52.118;5.406;2023-12-28T06:48:50;100935.66;;;12.56;65.05
79221;BME280;72175;52.118;5.406;2023-12-28T06:51:20;100921.53;;;12.55;65.25
79221;BME280;72175;52.118;5.406;2023-12-28T06:53:49;100922.53;;;12.54;65.28
79221;BME280;72175;52.118;5.406;2023-12-28T06:56:16;100926.00;;;12.55;65.21
79221;BME280;72175;52.118;5.406;2023-12-28T06:58:43;100926.84;;;12.55;65.16
79221;BME280;72175;52.118;5.406;2023-12-28T07:01:13;100936.63;;;12.55;65.12
79221;BME280;72175;52.118;5.406;2023-12-28T07:03:40;100933.97;;;12.55;65.08
79221;BME280;72175;52.118;5.406;2023-12-28T07:06:08;100933.97;;;12.55;65.33
79221;BME280;72175;52.118;5.406;2023-12-28T07:08:36;100942.78;;;12.55;65.26
79221;BME280;72175;52.118;5.406;2023-12-28T07:11:03;100939.28;;;12.55;65.43
79221;BME280;72175;52.118;5.406;2023-12-28T07:13:31;100941.94;;;12.55;65.22
79221;BME280;72175;52.118;5.406;2023-12-28T07:16:05;100948.09;;;12.55;65.26
79221;BME280;72175;52.118;5.406;2023-12-28T07:18:34;100942.78;;;12.55;65.09
79221;BME280;72175;52.118;5.406;2023-12-28T07:21:01;100936.63;;;12.55;65.25
79221;BME280;72175;52.118;5.406;2023-12-28T07:23:27;100952.56;;;12.55;65.14
79221;BME280;72175;52.118;5.406;2023-12-28T07:25:54;100967.66;;;12.54;65.39
79221;BME280;72175;52.118;5.406;2023-12-28T07:28:21;100971.97;;;12.55;65.27
79221;BME280;72175;52.118;5.406;2023-12-28T07:30:49;100962.19;;;12.56;65.28
79221;BME280;72175;52.118;5.406;2023-12-28T07:33:15;100967.50;;;12.56;65.48
79221;BME280;72175;52.118;5.406;2023-12-28T07:35:42;100980.78;;;12.56;65.34
79221;BME280;72175;52.118;5.406;2023-12-28T07:38:10;100983.28;;;12.57;65.54
79221;BME280;72175;52.118;5.406;2023-12-28T07:40:37;100971.69;;;12.58;65.43
79221;BME280;72175;52.118;5.406;2023-12-28T07:43:04;100984.81;;;12.60;65.24
79221;BME280;72175;52.118;5.406;2023-12-28T07:45:32;100981.16;;;12.61;65.34
79221;BME280;72175;52.118;5.406;2023-12-28T07:47:59;100974.88;;;12.62;65.47
79221;BME280;72175;52.118;5.406;2023-12-28T07:50:26;100989.69;;;12.65;65.43
79221;BME280;72175;52.118;5.406;2023-12-28T07:52:53;100994.00;;;12.66;65.27
79221;BME280;72175;52.118;5.406;2023-12-28T07:55:19;100993.00;;;12.67;65.48
79221;BME280;72175;52.118;5.406;2023-12-28T07:57:46;100992.84;;;12.68;65.66
79221;BME280;72175;52.118;5.406;2023-12-28T08:00:16;101002.50;;;12.69;65.32
79221;BME280;72175;52.118;5.406;2023-12-28T08:02:43;101002.34;;;12.71;65.17
79221;BME280;72175;52.118;5.406;2023-12-28T08:05:10;101007.50;;;12.72;65.13
79221;BME280;72175;52.118;5.406;2023-12-28T08:07:36;100987.94;;;12.73;65.32
79221;BME280;72175;52.118;5.406;2023-12-28T08:10:03;100998.56;;;12.73;65.10
79221;BME280;72175;52.118;5.406;2023-12-28T08:12:31;101007.38;;;12.74;65.09
79221;BME280;72175;52.118;5.406;2023-12-28T08:14:59;100992.13;;;12.76;65.01
79221;BME280;72175;52.118;5.406;2023-12-28T08:17:26;100989.31;;;12.77;65.34
79221;BME280;72175;52.118;5.406;2023-12-28T08:19:54;100983.03;;;12.78;65.38
79221;BME280;72175;52.118;5.406;2023-12-28T08:22:22;100984.69;;;12.79;65.37
79221;BME280;72175;52.118;5.406;2023-12-28T08:24:49;100990.84;;;12.80;65.13
79221;BME280;72175;52.118;5.406;2023-12-28T08:27:15;100988.06;;;12.81;65.08
79221;BME280;72175;52.118;5.406;2023-12-28T08:29:42;101013.63;;;12.82;64.92
79221;BME280;72175;52.118;5.406;2023-12-28T08:32:09;100996.84;;;12.82;65.23
79221;BME280;72175;52.118;5.406;2023-12-28T08:34:38;101008.13;;;12.84;65.02
79221;BME280;72175;52.118;5.406;2023-12-28T08:37:05;101016.94;;;12.84;65.08
79221;BME280;72175;52.118;5.406;2023-12-28T08:39:32;100998.19;;;12.86;65.02
79221;BME280;72175;52.118;5.406;2023-12-28T08:41:59;101004.34;;;12.86;65.16
79221;BME280;72175;52.118;5.406;2023-12-28T08:44:26;101006.03;;;12.87;64.68
79221;BME280;72175;52.118;5.406;2023-12-28T08:46:52;100989.25;;;12.87;65.08
79221;BME280;72175;52.118;5.406;2023-12-28T08:49:19;101011.34;;;12.87;65.17
79221;BME280;72175;52.118;5.406;2023-12-28T08:51:45;101028.94;;;12.88;65.42
79221;BME280;72175;52.118;5.406;2023-12-28T08:54:13;101015.50;;;12.90;65.04
79221;BME280;72175;52.118;5.406;2023-12-28T08:56:40;101015.50;;;12.90;65.30
79221;BME280;72175;52.118;5.406;2023-12-28T08:59:07;101027.81;;;12.91;65.03
79221;BME280;72175;52.118;5.406;2023-12-28T09:01:35;101029.50;;;12.92;65.05
79221;BME280;72175;52.118;5.406;2023-12-28T09:04:01;101023.34;;;12.91;65.08
79221;BME280;72175;52.118;5.406;2023-12-28T09:06:28;101034.78;;;12.92;65.01
79221;BME280;72175;52.118;5.406;2023-12-28T09:08:55;101047.09;;;12.93;65.25
79221;BME280;72175;52.118;5.406;2023-12-28T09:11:22;101045.41;;;12.92;64.87
79221;BME280;72175;52.118;5.406;2023-12-28T09:13:49;101018.88;;;12.92;65.10
79221;BME280;72175;52.118;5.406;2023-12-28T09:16:16;101031.16;;;12.93;64.86
79221;BME280;72175;52.118;5.406;2023-12-28T09:18:43;101026.69;;;12.93;65.11
79221;BME280;72175;52.118;5.406;2023-12-28T09:21:10;101028.50;;;12.93;65.17
79221;BME280;72175;52.118;5.406;2023-12-28T09:23:39;101032.84;;;12.94;64.94
79221;BME280;72175;52.118;5.406;2023-12-28T09:26:07;101030.03;;;12.95;65.00
79221;BME280;72175;52.118;5.406;2023-12-28T09:28:35;101036.31;;;12.94;64.79
79221;BME280;72175;52.118;5.406;2023-12-28T09:31:02;101043.31;;;12.95;64.87
79221;BME280;72175;52.118;5.406;2023-12-28T09:33:30;101049.59;;;12.94;65.00
79221;BME280;72175;52.118;5.406;2023-12-28T09:35:58;101053.94;;;12.95;65.05
79221;BME280;72175;52.118;5.406;2023-12-28T09:38:25;101049.31;;;12.98;64.86
79221;BME280;72175;52.118;5.406;2023-12-28T09:40:54;101052.97;;;12.96;64.91
79221;BME280;72175;52.118;5.406;2023-12-28T09:43:26;101058.25;;;12.96;64.91
79221;BME280;72175;52.118;5.406;2023-12-28T09:45:56;101052.97;;;12.96;64.90
79221;BME280;72175;52.118;5.406;2023-12-28T09:48:23;101066.94;;;12.99;64.97
79221;BME280;72175;52.118;5.406;2023-12-28T09:50:51;101060.78;;;12.98;65.09
79221;BME280;72175;52.118;5.406;2023-12-28T09:53:24;101072.25;;;12.99;64.80
79221;BME280;72175;52.118;5.406;2023-12-28T09:55:53;101072.25;;;12.99;65.10
79221;BME280;72175;52.118;5.406;2023-12-28T09:58:21;101082.69;;;13.00;64.88
79221;BME280;72175;52.118;5.406;2023-12-28T10:00:49;101062.28;;;13.01;65.25
79221;BME280;72175;52.118;5.406;2023-12-28T10:03:18;101066.59;;;13.02;65.08
79221;BME280;72175;52.118;5.406;2023-12-28T10:05:45;101072.75;;;13.02;65.16
79221;BME280;72175;52.118;5.406;2023-12-28T10:08:13;101066.59;;;13.02;65.14
79221;BME280;72175;52.118;5.406;2023-12-28T10:10:42;101069.13;;;13.03;65.04
79221;BME280;72175;52.118;5.406;2023-12-28T10:13:09;101075.25;;;13.04;64.93
79221;BME280;72175;52.118;5.406;2023-12-28T10:15:37;101082.41;;;13.03;64.76
79221;BME280;72175;52.118;5.406;2023-12-28T10:18:08;101086.72;;;13.04;65.08
79221;BME280;72175;52.118;5.406;2023-12-28T10:20:34;101081.41;;;13.04;65.17
79221;BME280;72175;52.118;5.406;2023-12-28T10:23:01;101087.56;;;13.05;64.92
79221;BME280;72175;52.118;5.406;2023-12-28T10:25:31;101084.91;;;13.05;65.11
79221;BME280;72175;52.118;5.406;2023-12-28T10:28:04;101087.56;;;13.05;65.12
79221;BME280;72175;52.118;5.406;2023-12-28T10:30:33;101093.72;;;13.05;65.05
79221;BME280;72175;52.118;5.406;2023-12-28T10:33:00;101082.94;;;13.07;65.16
79221;BME280;72175;52.118;5.406;2023-12-28T10:35:28;101079.44;;;13.06;64.75
79221;BME280;72175;52.118;5.406;2023-12-28T10:37:59;101080.28;;;13.07;65.04
79221;BME280;72175;52.118;5.406;2023-12-28T10:40:26;101082.09;;;13.06;65.11
79221;BME280;72175;52.118;5.406;2023-12-28T10:43:03;101078.47;;;13.07;65.09
79221;BME280;72175;52.118;5.406;2023-12-28T10:45:32;101081.13;;;13.07;65.01
79221;BME280;72175;52.118;5.406;2023-12-28T10:48:11;101092.59;;;13.08;64.90
79221;BME280;72175;52.118;5.406;2023-12-28T10:50:42;101073.84;;;13.09;65.01
79221;BME280;72175;52.118;5.406;2023-12-28T10:53:25;101076.50;;;13.09;64.90
79221;BME280;72175;52.118;5.406;2023-12-28T10:58:49;101080.00;;;13.10;65.24
79221;BME280;72175;52.118;5.406;2023-12-28T11:01:26;101076.34;;;13.11;64.92
79221;BME280;72175;52.118;5.406;2023-12-28T11:04:23;101079.00;;;13.11;65.19
79221;BME280;72175;52.118;5.406;2023-12-28T11:06:51;101081.66;;;13.11;64.68
79221;BME280;72175;52.118;5.406;2023-12-28T11:09:20;101066.56;;;13.11;65.14
79221;BME280;72175;52.118;5.406;2023-12-28T11:11:49;101074.53;;;13.11;65.21
79221;BME280;72175;52.118;5.406;2023-12-28T11:14:18;101058.59;;;13.11;65.14
79221;BME280;72175;52.118;5.406;2023-12-28T11:16:44;101062.78;;;13.14;65.06
79221;BME280;72175;52.118;5.406;2023-12-28T11:19:12;101075.22;;;13.13;64.74
79221;BME280;72175;52.118;5.406;2023-12-28T11:21:39;101070.75;;;13.14;65.08
79221;BME280;72175;52.118;5.406;2023-12-28T11:24:08;101062.78;;;13.14;65.23
79221;BME280;72175;52.118;5.406;2023-12-28T11:26:35;101060.97;;;13.14;65.09
79221;BME280;72175;52.118;5.406;2023-12-28T11:29:02;101080.44;;;13.15;65.19
79221;BME280;72175;52.118;5.406;2023-12-28T11:31:34;101059.97;;;13.15;65.01
79221;BME280;72175;52.118;5.406;2023-12-28T11:34:04;101071.44;;;13.16;64.85
79221;BME280;72175;52.118;5.406;2023-12-28T11:36:36;101053.00;;;13.14;65.13
79221;BME280;72175;52.118;5.406;2023-12-28T11:39:05;101036.06;;;13.15;64.86
79221;BME280;72175;52.118;5.406;2023-12-28T11:41:33;101048.38;;;13.16;65.00
79221;BME280;72175;52.118;5.406;2023-12-28T11:44:03;101049.19;;;13.17;65.01
79221;BME280;72175;52.118;5.406;2023-12-28T11:46:35;101058.84;;;13.18;64.93
79221;BME280;72175;52.118;5.406;2023-12-28T11:49:05;101056.19;;;13.18;64.83
79221;BME280;72175;52.118;5.406;2023-12-28T11:51:34;101060.66;;;13.17;65.16
79221;BME280;72175;52.118;5.406;2023-12-28T11:54:02;101066.81;;;13.18;64.86
79221;BME280;72175;52.118;5.406;2023-12-28T11:56:35;101060.66;;;13.17;65.10
79221;BME280;72175;52.118;5.406;2023-12-28T11:59:03;101058.00;;;13.17;65.10
79221;BME280;72175;52.118;5.406;2023-12-28T12:01:29;101062.34;;;13.18;65.14
79221;BME280;72175;52.118;5.406;2023-12-28T12:03:57;101064.16;;;13.18;65.21
79221;BME280;72175;52.118;5.406;2023-12-28T12:06:24;101058.00;;;13.17;65.17
79221;BME280;72175;52.118;5.406;2023-12-28T12:08:51;101055.22;;;13.19;64.89
79221;BME280;72175;52.118;5.406;2023-12-28T12:11:18;101057.03;;;13.18;64.79
79221;BME280;72175;52.118;5.406;2023-12-28T12:13:50;101049.06;;;13.18;64.94
79221;BME280;72175;52.118;5.406;2023-12-28T12:16:17;101047.09;;;13.20;65.40
79221;BME280;72175;52.118;5.406;2023-12-28T12:18:44;101047.09;;;13.20;64.85
79221;BME280;72175;52.118;5.406;2023-12-28T12:21:12;101043.59;;;13.20;64.86
79221;BME280;72175;52.118;5.406;2023-12-28T12:23:38;101037.28;;;13.21;65.09
79221;BME280;72175;52.118;5.406;2023-12-28T12:26:05;101028.50;;;13.20;64.98
79221;BME280;72175;52.118;5.406;2023-12-28T12:28:34;101033.81;;;13.20;64.79
79221;BME280;72175;52.118;5.406;2023-12-28T12:31:00;101031.16;;;13.20;64.87
79221;BME280;72175;52.118;5.406;2023-12-28T12:33:28;101035.47;;;13.21;64.91
79221;BME280;72175;52.118;5.406;2023-12-28T12:35:57;101038.28;;;13.20;65.08
79221;BME280;72175;52.118;5.406;2023-12-28T12:38:23;101031.00;;;13.22;65.06
79221;BME280;72175;52.118;5.406;2023-12-28T12:40:51;101025.69;;;13.22;64.85
79221;BME280;72175;52.118;5.406;2023-12-28T12:43:18;101027.34;;;13.23;65.07
79221;BME280;72175;52.118;5.406;2023-12-28T12:45:46;101030.00;;;13.23;65.09
79221;BME280;72175;52.118;5.406;2023-12-28T12:48:14;101046.78;;;13.23;64.97
79221;BME280;72175;52.118;5.406;2023-12-28T12:50:43;101026.38;;;13.24;64.71
79221;BME280;72175;52.118;5.406;2023-12-28T12:53:09;101021.91;;;13.24;64.82
79221;BME280;72175;52.118;5.406;2023-12-28T12:55:37;101030.69;;;13.25;64.99
79221;BME280;72175;52.118;5.406;2023-12-28T12:58:11;101027.06;;;13.26;65.19